Time;durP1;ratioP1;P1;durP2;ratioP2;P2;SDS_P1;SDS_P2;PMS_P1;PMS_P2;Temp;Humidity;BMP_temperature;BMP_pressure;BME280_temperature;BME280_humidity;BME280_pressure;Samples;Min_cycle;Max_cycle;Signal;HPM_P1;HPM_P2
2023/09/19 00:02:09;;;;;;;29.27;27.67;;;;;;;;;;5019309;28;21002;-79
2023/09/19 00:04:39;;;;;;;30.70;28.60;;;;;;;;;;5019875;28;20468;-81
2023/09/19 00:07:06;;;;;;;30.60;28.87;;;;;;;;;;5019636;28;20518;-80
2023/09/19 00:09:37;;;;;;;32.00;29.80;;;;;;;;;;5020320;28;20419;-79
2023/09/19 00:12:04;;;;;;;31.37;29.57;;;;;;;;;;5020384;28;20548;-80
2023/09/19 00:14:34;;;;;;;32.00;30.00;;;;;;;;;;5020000;28;20418;-80
2023/09/19 00:17:05;;;;;;;30.43;28.60;;;;;;;;;;5018606;28;20443;-80
2023/09/19 00:19:33;;;;;;;30.83;28.80;;;;;;;;;;5019381;28;20447;-80
2023/09/19 00:22:02;;;;;;;30.43;28.20;;;;;;;;;;5019684;28;20479;-81
2023/09/19 00:24:29;;;;;;;30.43;28.63;;;;;;;;;;5015568;28;20533;-79
2023/09/19 00:26:58;;;;;;;28.67;26.70;;;;;;;;;;5018230;28;20466;-79
2023/09/19 00:29:28;;;;;;;28.73;26.83;;;;;;;;;;5019387;28;20437;-80
2023/09/19 00:31:56;;;;;;;27.70;25.90;;;;;;;;;;5019176;28;20507;-80
2023/09/19 00:34:23;;;;;;;29.03;27.10;;;;;;;;;;5019330;28;20475;-79
2023/09/19 00:36:50;;;;;;;28.03;26.33;;;;;;;;;;5018582;28;20635;-81
2023/09/19 00:39:20;;;;;;;27.67;26.00;;;;;;;;;;5018939;28;20476;-81
2023/09/19 00:41:47;;;;;;;27.33;25.33;;;;;;;;;;5019254;28;20471;-80
2023/09/19 00:44:15;;;;;;;26.23;24.63;;;;;;;;;;5018523;28;20452;-79
2023/09/19 00:46:43;;;;;;;28.17;26.37;;;;;;;;;;5018246;28;20438;-79
2023/09/19 00:49:11;;;;;;;27.30;25.70;;;;;;;;;;5019207;28;20475;-79
2023/09/19 00:51:45;;;;;;;28.50;26.53;;;;;;;;;;5019016;28;20959;-80
2023/09/19 00:54:17;;;;;;;26.87;24.90;;;;;;;;;;5001164;28;20447;-80
2023/09/19 00:56:46;;;;;;;27.00;25.20;;;;;;;;;;4998660;28;21010;-80
2023/09/19 00:59:13;;;;;;;27.70;25.50;;;;;;;;;;4998233;28;20508;-80
2023/09/19 01:01:41;;;;;;;26.13;23.93;;;;;;;;;;4999840;28;20420;-80
2023/09/19 01:04:08;;;;;;;25.93;24.20;;;;;;;;;;4999671;28;20457;-80
2023/09/19 01:06:36;;;;;;;26.77;24.70;;;;;;;;;;4999027;28;20486;-80
2023/09/19 01:09:05;;;;;;;26.40;24.33;;;;;;;;;;4998997;28;20968;-80
2023/09/19 01:11:35;;;;;;;26.57;24.33;;;;;;;;;;4998391;28;20535;-79
2023/09/19 01:14:07;;;;;;;25.73;23.83;;;;;;;;;;4999651;28;20973;-80
2023/09/19 01:16:39;;;;;;;26.67;24.73;;;;;;;;;;4998788;28;20468;-80
2023/09/19 01:19:24;;;;;;;26.07;24.17;;;;;;;;;;4999549;28;20404;-81
2023/09/19 01:21:55;;;;;;;25.40;23.60;;;;;;;;;;4959292;28;20579;-80
2023/09/19 01:24:36;;;;;;;24.17;22.70;;;;;;;;;;4999254;28;20433;-80
2023/09/19 01:27:10;;;;;;;25.80;23.57;;;;;;;;;;4998972;28;20872;-81
2023/09/19 01:29:40;;;;;;;25.93;23.87;;;;;;;;;;4999731;28;20453;-81
2023/09/19 01:32:09;;;;;;;26.30;24.30;;;;;;;;;;4998986;28;20491;-79
2023/09/19 01:34:48;;;;;;;25.60;24.00;;;;;;;;;;4999278;28;20443;-80
2023/09/19 01:37:19;;;;;;;25.50;23.53;;;;;;;;;;4998947;28;20544;-79
2023/09/19 01:39:48;;;;;;;26.07;24.20;;;;;;;;;;4999288;28;20863;-80
2023/09/19 01:42:19;;;;;;;27.33;24.60;;;;;;;;;;4998807;28;20468;-80
2023/09/19 01:44:53;;;;;;;26.10;24.10;;;;;;;;;;4998476;28;20457;-80
2023/09/19 01:47:28;;;;;;;23.97;22.47;;;;;;;;;;4998428;28;20565;-80
2023/09/19 01:49:58;;;;;;;27.13;25.27;;;;;;;;;;4998815;28;20520;-80
2023/09/19 01:52:29;;;;;;;25.00;23.10;;;;;;;;;;4998320;28;20976;-81
2023/09/19 01:54:58;;;;;;;26.17;24.30;;;;;;;;;;4999493;28;20448;-80
2023/09/19 01:57:29;;;;;;;24.90;23.40;;;;;;;;;;4997855;28;20449;-80
2023/09/19 02:00:01;;;;;;;25.03;23.33;;;;;;;;;;4998906;28;20828;-80
2023/09/19 02:02:29;;;;;;;25.83;23.93;;;;;;;;;;4998748;28;20451;-80
2023/09/19 02:04:56;;;;;;;26.50;24.20;;;;;;;;;;4998089;28;20463;-81
2023/09/19 02:07:23;;;;;;;25.13;22.70;;;;;;;;;;4997551;28;20500;-80
2023/09/19 02:09:50;;;;;;;25.73;23.73;;;;;;;;;;4998667;28;20454;-80
2023/09/19 02:12:17;;;;;;;25.57;23.80;;;;;;;;;;4998190;28;20481;-81
2023/09/19 02:14:44;;;;;;;26.23;24.13;;;;;;;;;;4998312;28;20449;-81
2023/09/19 02:17:12;;;;;;;23.27;21.60;;;;;;;;;;4997008;28;20474;-79
2023/09/19 02:19:41;;;;;;;23.23;21.73;;;;;;;;;;4998732;28;20504;-80
2023/09/19 02:22:10;;;;;;;23.87;21.80;;;;;;;;;;4998465;28;20481;-80
2023/09/19 02:24:37;;;;;;;25.30;23.03;;;;;;;;;;4998032;28;20453;-80
2023/09/19 02:27:05;;;;;;;23.17;21.27;;;;;;;;;;5003082;28;20451;-80
2023/09/19 02:29:32;;;;;;;22.27;20.57;;;;;;;;;;5009398;28;20489;-80
2023/09/19 02:31:59;;;;;;;22.17;20.20;;;;;;;;;;4998229;28;20545;-80
2023/09/19 02:34:27;;;;;;;21.10;19.53;;;;;;;;;;4997896;28;20516;-79
2023/09/19 02:36:56;;;;;;;21.83;20.20;;;;;;;;;;4996855;28;20495;-79
2023/09/19 02:39:23;;;;;;;20.80;19.10;;;;;;;;;;4997992;28;20846;-80
2023/09/19 02:41:50;;;;;;;21.20;19.70;;;;;;;;;;5001530;28;20446;-80
2023/09/19 02:44:20;;;;;;;21.57;19.83;;;;;;;;;;5017621;28;20452;-81
2023/09/19 02:46:48;;;;;;;21.00;19.37;;;;;;;;;;5016974;28;20563;-81
2023/09/19 02:49:15;;;;;;;20.73;18.97;;;;;;;;;;5017932;28;20472;-79
2023/09/19 02:51:42;;;;;;;20.83;19.20;;;;;;;;;;5017868;28;20463;-79
2023/09/19 02:54:11;;;;;;;21.27;19.67;;;;;;;;;;5018002;28;20448;-81
2023/09/19 02:56:38;;;;;;;21.77;20.03;;;;;;;;;;4997904;28;20464;-79
2023/09/19 02:59:05;;;;;;;22.43;20.33;;;;;;;;;;4997084;28;21022;-79
2023/09/19 03:01:33;;;;;;;22.17;20.27;;;;;;;;;;4998216;28;20495;-82
2023/09/19 03:04:00;;;;;;;21.90;20.10;;;;;;;;;;4998250;28;20811;-80
2023/09/19 03:06:28;;;;;;;21.93;20.13;;;;;;;;;;4997243;28;20457;-79
2023/09/19 03:08:56;;;;;;;22.37;20.20;;;;;;;;;;4996925;28;20487;-80
2023/09/19 03:11:24;;;;;;;21.33;19.73;;;;;;;;;;4997388;28;20863;-80
2023/09/19 03:13:52;;;;;;;21.87;20.30;;;;;;;;;;4997942;28;20440;-79
2023/09/19 03:16:21;;;;;;;23.07;21.20;;;;;;;;;;4997532;28;20424;-79
2023/09/19 03:18:48;;;;;;;21.90;20.03;;;;;;;;;;4996792;28;20477;-80
2023/09/19 03:21:16;;;;;;;21.13;19.70;;;;;;;;;;4996933;28;20457;-80
2023/09/19 03:23:45;;;;;;;22.13;19.90;;;;;;;;;;4997564;28;20444;-80
2023/09/19 03:26:12;;;;;;;21.23;19.80;;;;;;;;;;4996995;28;20428;-79
2023/09/19 03:28:40;;;;;;;20.37;19.00;;;;;;;;;;4997509;28;20497;-81
2023/09/19 03:31:08;;;;;;;21.60;19.50;;;;;;;;;;4997685;28;20435;-80
2023/09/19 03:33:35;;;;;;;21.77;20.07;;;;;;;;;;4997888;28;20439;-79
2023/09/19 03:36:04;;;;;;;21.40;19.73;;;;;;;;;;4997080;28;20456;-80
2023/09/19 03:38:32;;;;;;;20.13;18.60;;;;;;;;;;4996775;28;20444;-80
2023/09/19 03:40:59;;;;;;;21.57;19.30;;;;;;;;;;4997379;28;20520;-79
2023/09/19 03:43:26;;;;;;;23.23;21.17;;;;;;;;;;4998078;28;20488;-78
2023/09/19 03:45:55;;;;;;;20.63;18.60;;;;;;;;;;4997270;28;20423;-81
2023/09/19 03:48:22;;;;;;;20.07;18.33;;;;;;;;;;4997282;28;20544;-80
2023/09/19 03:50:49;;;;;;;20.00;18.63;;;;;;;;;;4997328;28;20516;-80
2023/09/19 03:53:16;;;;;;;20.13;18.80;;;;;;;;;;4997440;28;20532;-79
2023/09/19 03:55:46;;;;;;;20.17;18.57;;;;;;;;;;4996533;28;20428;-80
2023/09/19 03:58:13;;;;;;;20.77;18.83;;;;;;;;;;4997025;28;20454;-80
2023/09/19 04:00:40;;;;;;;20.30;18.67;;;;;;;;;;4996758;28;20943;-80
2023/09/19 04:03:10;;;;;;;25.03;22.53;;;;;;;;;;4997484;28;20826;-79
2023/09/19 04:05:37;;;;;;;20.33;19.00;;;;;;;;;;4997489;28;20416;-82
2023/09/19 04:08:05;;;;;;;19.47;18.30;;;;;;;;;;4997135;28;20531;-80
2023/09/19 04:10:32;;;;;;;20.73;19.00;;;;;;;;;;4997554;28;20454;-80
2023/09/19 04:12:59;;;;;;;21.23;19.80;;;;;;;;;;4996761;28;20491;-81
2023/09/19 04:15:27;;;;;;;21.53;19.63;;;;;;;;;;4997017;28;20432;-80
2023/09/19 04:17:54;;;;;;;22.20;20.10;;;;;;;;;;4996231;28;20435;-81
2023/09/19 04:20:23;;;;;;;21.07;19.10;;;;;;;;;;4997395;28;20423;-80
2023/09/19 04:22:50;;;;;;;23.70;20.40;;;;;;;;;;4996692;28;20492;-80
2023/09/19 04:25:18;;;;;;;20.57;19.07;;;;;;;;;;4997481;28;20432;-80
2023/09/19 04:27:46;;;;;;;21.37;19.10;;;;;;;;;;4996448;28;20496;-80
2023/09/19 04:30:14;;;;;;;20.97;19.40;;;;;;;;;;4998346;28;20515;-79
2023/09/19 04:32:41;;;;;;;20.03;18.30;;;;;;;;;;5000365;28;20572;-79
2023/09/19 04:35:09;;;;;;;20.23;18.73;;;;;;;;;;5000933;28;20435;-79
2023/09/19 04:37:40;;;;;;;20.30;18.57;;;;;;;;;;4999857;28;20492;-80
2023/09/19 04:40:12;;;;;;;21.40;19.67;;;;;;;;;;5000496;28;20404;-80
2023/09/19 04:42:39;;;;;;;21.73;19.80;;;;;;;;;;4999354;28;20498;-79
2023/09/19 04:45:07;;;;;;;21.17;19.30;;;;;;;;;;5000444;28;20455;-80
2023/09/19 04:47:34;;;;;;;21.20;19.60;;;;;;;;;;4999880;28;20552;-79
2023/09/19 04:50:01;;;;;;;20.83;18.60;;;;;;;;;;5000183;28;20467;-80
2023/09/19 04:52:28;;;;;;;21.03;19.33;;;;;;;;;;4999903;28;20496;-80
2023/09/19 04:54:56;;;;;;;21.37;19.60;;;;;;;;;;5000652;28;20771;-79
2023/09/19 04:57:25;;;;;;;20.50;18.77;;;;;;;;;;4999337;28;20726;-80
2023/09/19 04:59:52;;;;;;;22.30;19.97;;;;;;;;;;5000237;28;20432;-80
2023/09/19 05:02:19;;;;;;;24.57;20.90;;;;;;;;;;4999573;28;20568;-80
2023/09/19 05:04:46;;;;;;;24.20;18.80;;;;;;;;;;4999404;28;20444;-80
2023/09/19 05:07:13;;;;;;;21.33;19.23;;;;;;;;;;4999616;28;20457;-79
2023/09/19 05:09:42;;;;;;;21.03;19.33;;;;;;;;;;5000038;28;20493;-81
2023/09/19 05:12:10;;;;;;;20.30;18.67;;;;;;;;;;5000031;28;20452;-80
2023/09/19 05:14:37;;;;;;;21.13;19.07;;;;;;;;;;5007753;28;20830;-80
2023/09/19 05:17:05;;;;;;;20.47;18.67;;;;;;;;;;5018376;28;20431;-80
2023/09/19 05:19:32;;;;;;;20.77;18.73;;;;;;;;;;5018766;28;20754;-80
2023/09/19 05:21:59;;;;;;;20.97;19.33;;;;;;;;;;5016248;28;20483;-80
2023/09/19 05:24:26;;;;;;;20.33;18.83;;;;;;;;;;5015460;28;20459;-80
2023/09/19 05:26:55;;;;;;;20.83;18.90;;;;;;;;;;5018274;28;20977;-79
2023/09/19 05:29:23;;;;;;;21.97;20.07;;;;;;;;;;5018539;28;20462;-79
2023/09/19 05:31:50;;;;;;;20.43;18.70;;;;;;;;;;5017714;28;20463;-81
2023/09/19 05:34:18;;;;;;;22.33;20.17;;;;;;;;;;5018724;28;20474;-80
2023/09/19 05:36:45;;;;;;;20.57;18.87;;;;;;;;;;5017839;28;20459;-79
2023/09/19 05:39:12;;;;;;;21.17;19.13;;;;;;;;;;5018894;28;20456;-80
2023/09/19 05:41:39;;;;;;;20.63;18.63;;;;;;;;;;5016927;28;20533;-80
2023/09/19 05:44:07;;;;;;;20.13;18.63;;;;;;;;;;5017900;28;20478;-80
2023/09/19 05:46:35;;;;;;;20.50;19.07;;;;;;;;;;5017218;28;20885;-79
2023/09/19 05:49:03;;;;;;;20.50;19.20;;;;;;;;;;5018259;28;20459;-79
2023/09/19 05:51:30;;;;;;;21.60;19.50;;;;;;;;;;5018995;28;20427;-80
2023/09/19 05:53:57;;;;;;;21.33;19.30;;;;;;;;;;5018305;28;20474;-79
2023/09/19 05:56:25;;;;;;;20.80;19.33;;;;;;;;;;5017267;28;20464;-80
2023/09/19 05:58:53;;;;;;;24.13;20.00;;;;;;;;;;5018880;28;20444;-79
2023/09/19 06:01:20;;;;;;;21.53;19.57;;;;;;;;;;5018300;28;20484;-80
2023/09/19 06:03:48;;;;;;;21.53;19.63;;;;;;;;;;5012809;28;20451;-79
2023/09/19 06:06:15;;;;;;;20.73;19.37;;;;;;;;;;4998243;28;20836;-80
2023/09/19 06:08:44;;;;;;;20.93;19.23;;;;;;;;;;4997839;28;20842;-81
2023/09/19 06:11:11;;;;;;;21.77;19.73;;;;;;;;;;4998807;28;20432;-81
2023/09/19 06:13:40;;;;;;;21.30;19.50;;;;;;;;;;5000753;28;20448;-86
2023/09/19 06:16:07;;;;;;;20.63;19.03;;;;;;;;;;4996279;28;20432;-80
2023/09/19 06:18:34;;;;;;;20.60;18.50;;;;;;;;;;4997616;28;20465;-81
2023/09/19 06:21:07;;;;;;;20.03;18.60;;;;;;;;;;4997818;28;20457;-80
2023/09/19 06:23:35;;;;;;;20.60;18.93;;;;;;;;;;4996815;28;20477;-80
2023/09/19 06:26:03;;;;;;;21.13;19.17;;;;;;;;;;4996582;28;20960;-81
2023/09/19 06:28:30;;;;;;;20.97;19.00;;;;;;;;;;4996196;28;20452;-81
2023/09/19 06:30:58;;;;;;;20.20;18.83;;;;;;;;;;4996738;28;20420;-80
2023/09/19 06:33:25;;;;;;;21.50;19.47;;;;;;;;;;4996929;28;20458;-80
2023/09/19 06:35:58;;;;;;;20.70;18.70;;;;;;;;;;4996947;28;20944;-80
2023/09/19 06:38:28;;;;;;;19.87;18.20;;;;;;;;;;4998138;28;20420;-81
2023/09/19 06:40:55;;;;;;;20.03;18.73;;;;;;;;;;4998012;28;20465;-81
2023/09/19 06:43:23;;;;;;;20.20;18.63;;;;;;;;;;5014969;28;20889;-81
2023/09/19 06:45:51;;;;;;;21.53;19.93;;;;;;;;;;5016853;28;20492;-81
2023/09/19 06:48:19;;;;;;;20.87;18.93;;;;;;;;;;5017839;28;20442;-81
2023/09/19 06:50:47;;;;;;;22.90;19.30;;;;;;;;;;5017504;28;20502;-79
2023/09/19 06:53:15;;;;;;;21.73;19.70;;;;;;;;;;5017906;28;20474;-80
2023/09/19 06:55:43;;;;;;;20.20;18.70;;;;;;;;;;5017295;28;20459;-79
2023/09/19 06:58:10;;;;;;;20.70;19.00;;;;;;;;;;5017246;28;20470;-80
2023/09/19 07:00:38;;;;;;;20.20;18.70;;;;;;;;;;5017908;28;20445;-81
2023/09/19 07:03:10;;;;;;;22.27;20.53;;;;;;;;;;5017983;28;20828;-81
2023/09/19 07:05:38;;;;;;;21.00;19.20;;;;;;;;;;5019174;28;20404;-81
2023/09/19 07:08:06;;;;;;;20.93;19.17;;;;;;;;;;5018097;28;20460;-81
2023/09/19 07:10:34;;;;;;;20.80;19.23;;;;;;;;;;5016900;28;20498;-80
2023/09/19 07:13:03;;;;;;;22.10;19.90;;;;;;;;;;5017705;28;20468;-81
2023/09/19 07:15:30;;;;;;;19.33;18.10;;;;;;;;;;5016815;28;21008;-80
2023/09/19 07:17:58;;;;;;;21.37;19.70;;;;;;;;;;5016890;28;20445;-80
2023/09/19 07:20:27;;;;;;;20.50;18.53;;;;;;;;;;5007679;28;20457;-80
2023/09/19 07:22:55;;;;;;;19.73;18.10;;;;;;;;;;5014618;28;20502;-80
2023/09/19 07:25:22;;;;;;;20.93;19.13;;;;;;;;;;5011286;28;20457;-79
2023/09/19 07:27:51;;;;;;;23.90;20.50;;;;;;;;;;4996824;28;20540;-79
2023/09/19 07:30:19;;;;;;;20.50;18.90;;;;;;;;;;4998377;28;20481;-79
2023/09/19 07:32:46;;;;;;;21.60;19.87;;;;;;;;;;5003503;28;20922;-79
2023/09/19 07:35:14;;;;;;;19.97;18.43;;;;;;;;;;5015191;28;20535;-81
2023/09/19 07:37:42;;;;;;;20.40;19.13;;;;;;;;;;5015068;28;20823;-81
2023/09/19 07:40:09;;;;;;;20.47;19.23;;;;;;;;;;5016075;28;20447;-81
2023/09/19 07:42:40;;;;;;;22.30;20.37;;;;;;;;;;5015708;28;20513;-82
2023/09/19 07:45:09;;;;;;;21.80;20.10;;;;;;;;;;5016490;28;20471;-81
2023/09/19 07:47:37;;;;;;;21.20;19.60;;;;;;;;;;5017355;28;20446;-81
2023/09/19 07:50:04;;;;;;;20.70;19.33;;;;;;;;;;5017723;28;20459;-81
2023/09/19 07:52:33;;;;;;;21.00;19.70;;;;;;;;;;5017339;28;20468;-81
2023/09/19 07:55:01;;;;;;;21.13;19.13;;;;;;;;;;5018106;28;20441;-81
2023/09/19 07:57:29;;;;;;;20.60;19.20;;;;;;;;;;5017357;28;20495;-81
2023/09/19 07:59:57;;;;;;;21.00;19.23;;;;;;;;;;5016616;28;20468;-81
2023/09/19 08:02:24;;;;;;;21.67;19.70;;;;;;;;;;5017847;28;20468;-81
2023/09/19 08:04:53;;;;;;;21.50;20.00;;;;;;;;;;5018902;28;20555;-81
2023/09/19 08:07:20;;;;;;;21.17;19.60;;;;;;;;;;5020835;28;20467;-81
2023/09/19 08:09:48;;;;;;;21.13;19.50;;;;;;;;;;5019519;28;20826;-80
2023/09/19 08:12:16;;;;;;;19.97;18.73;;;;;;;;;;5020400;28;20443;-81
2023/09/19 08:14:43;;;;;;;21.60;19.70;;;;;;;;;;5021204;28;20456;-82
2023/09/19 08:17:12;;;;;;;21.47;19.40;;;;;;;;;;5020547;28;20429;-82
2023/09/19 08:19:41;;;;;;;20.63;19.07;;;;;;;;;;5021133;28;20857;-82
2023/09/19 08:22:11;;;;;;;19.90;18.63;;;;;;;;;;5020732;28;20893;-82
2023/09/19 08:24:38;;;;;;;19.90;18.40;;;;;;;;;;5021366;28;20423;-81
2023/09/19 08:27:09;;;;;;;19.83;18.73;;;;;;;;;;5020257;28;20418;-81
2023/09/19 08:29:36;;;;;;;22.70;20.60;;;;;;;;;;5023448;28;20538;-81
2023/09/19 08:32:03;;;;;;;20.67;19.10;;;;;;;;;;5023356;28;20484;-81
2023/09/19 08:34:34;;;;;;;21.40;19.23;;;;;;;;;;5023147;28;20456;-81
2023/09/19 08:37:01;;;;;;;19.53;18.27;;;;;;;;;;5023366;28;20432;-81
2023/09/19 08:39:30;;;;;;;21.17;19.07;;;;;;;;;;5022107;28;20507;-81
2023/09/19 08:42:01;;;;;;;21.27;19.20;;;;;;;;;;5021325;28;20535;-81
2023/09/19 08:44:30;;;;;;;21.87;19.63;;;;;;;;;;5023895;28;20435;-86
2023/09/19 08:47:01;;;;;;;20.70;18.70;;;;;;;;;;5025091;28;20490;-86
2023/09/19 08:49:34;;;;;;;21.87;19.67;;;;;;;;;;5020106;28;20548;-81
2023/09/19 08:52:06;;;;;;;19.50;18.00;;;;;;;;;;5016544;28;20454;-80
2023/09/19 08:54:39;;;;;;;20.63;18.93;;;;;;;;;;5014539;28;20440;-80
2023/09/19 08:57:08;;;;;;;21.30;19.63;;;;;;;;;;5011703;28;20445;-81
2023/09/19 08:59:38;;;;;;;21.03;19.53;;;;;;;;;;5014490;28;20452;-85
2023/09/19 09:02:05;;;;;;;21.17;19.17;;;;;;;;;;5017031;28;20824;-86
2023/09/19 09:04:32;;;;;;;20.03;18.47;;;;;;;;;;5008160;28;20514;-86
2023/09/19 09:07:00;;;;;;;21.33;19.67;;;;;;;;;;5001638;28;20760;-86
2023/09/19 09:09:28;;;;;;;22.10;20.23;;;;;;;;;;5008138;28;20568;-86
2023/09/19 09:11:56;;;;;;;21.30;19.30;;;;;;;;;;5012058;28;20452;-86
2023/09/19 09:14:24;;;;;;;23.17;21.37;;;;;;;;;;5017925;28;20448;-87
2023/09/19 09:16:51;;;;;;;22.83;20.67;;;;;;;;;;5022090;28;20804;-86
2023/09/19 09:19:24;;;;;;;20.90;19.50;;;;;;;;;;5022041;28;20453;-84
2023/09/19 09:21:51;;;;;;;22.27;20.20;;;;;;;;;;5022816;28;20514;-86
2023/09/19 09:24:29;;;;;;;22.10;20.60;;;;;;;;;;5015788;28;20492;-85
2023/09/19 09:26:58;;;;;;;22.93;20.70;;;;;;;;;;5019243;28;20456;-86
2023/09/19 09:29:41;;;;;;;21.93;20.20;;;;;;;;;;5020382;28;20452;-87
2023/09/19 09:32:19;;;;;;;22.87;21.00;;;;;;;;;;5021213;28;20484;-86
2023/09/19 09:34:46;;;;;;;22.13;20.20;;;;;;;;;;5021906;28;20445;-87
2023/09/19 09:37:16;;;;;;;22.83;21.03;;;;;;;;;;5022183;28;20449;-84
2023/09/19 09:39:51;;;;;;;23.03;21.10;;;;;;;;;;5019700;28;20437;-86
2023/09/19 09:42:31;;;;;;;22.47;20.67;;;;;;;;;;5018827;28;20499;-84
2023/09/19 09:45:13;;;;;;;21.70;20.13;;;;;;;;;;5019637;28;20543;-86
2023/09/19 09:47:54;;;;;;;23.57;21.57;;;;;;;;;;5019758;28;20464;-86
2023/09/19 09:50:39;;;;;;;23.20;21.00;;;;;;;;;;5009467;28;20955;-85
2023/09/19 09:53:07;;;;;;;22.53;20.80;;;;;;;;;;5012548;28;20508;-80
2023/09/19 09:55:58;;;;;;;22.83;21.00;;;;;;;;;;5018297;28;20455;-81
2023/09/19 09:58:29;;;;;;;22.30;20.80;;;;;;;;;;5018046;28;20453;-81
2023/09/19 10:00:58;;;;;;;21.97;20.37;;;;;;;;;;5018721;28;20449;-81
2023/09/19 10:03:33;;;;;;;24.20;22.10;;;;;;;;;;5018251;28;20538;-81
2023/09/19 10:06:08;;;;;;;22.50;20.90;;;;;;;;;;5017592;28;20463;-80
2023/09/19 10:08:36;;;;;;;23.93;21.93;;;;;;;;;;5017678;28;20447;-81
2023/09/19 10:11:16;;;;;;;23.87;21.90;;;;;;;;;;5021122;28;20480;-84
2023/09/19 10:13:46;;;;;;;22.80;21.13;;;;;;;;;;5023510;28;20474;-87
2023/09/19 10:16:14;;;;;;;22.90;21.10;;;;;;;;;;5021526;28;20415;-84
2023/09/19 10:18:44;;;;;;;22.80;21.10;;;;;;;;;;5020493;28;20459;-88
2023/09/19 10:21:11;;;;;;;23.20;21.10;;;;;;;;;;5021419;28;20536;-86
2023/09/19 10:23:40;;;;;;;23.10;21.17;;;;;;;;;;5021246;28;20475;-86
2023/09/19 10:26:08;;;;;;;22.10;20.70;;;;;;;;;;5021051;28;20454;-84
2023/09/19 10:28:37;;;;;;;23.47;21.40;;;;;;;;;;5019920;28;20468;-86
2023/09/19 10:31:09;;;;;;;22.77;21.17;;;;;;;;;;5020180;28;20495;-84
2023/09/19 10:33:38;;;;;;;23.93;22.00;;;;;;;;;;5016818;28;20488;-85
2023/09/19 10:36:06;;;;;;;22.63;20.97;;;;;;;;;;5009046;28;20541;-85
2023/09/19 10:38:35;;;;;;;22.97;21.30;;;;;;;;;;4998843;28;20552;-84
2023/09/19 10:41:03;;;;;;;22.90;21.00;;;;;;;;;;5018405;28;20878;-84
2023/09/19 10:43:31;;;;;;;23.70;21.80;;;;;;;;;;5013494;28;20476;-85
2023/09/19 10:46:03;;;;;;;23.07;21.33;;;;;;;;;;5018213;28;20481;-83
2023/09/19 10:48:32;;;;;;;23.43;21.73;;;;;;;;;;5017787;28;20945;-83
2023/09/19 10:51:04;;;;;;;22.43;20.93;;;;;;;;;;5018318;28;20952;-83
2023/09/19 10:53:34;;;;;;;24.27;22.63;;;;;;;;;;5018374;28;20517;-84
2023/09/19 10:56:09;;;;;;;24.80;22.60;;;;;;;;;;5018234;28;20427;-83
2023/09/19 10:58:39;;;;;;;23.50;21.90;;;;;;;;;;5017110;28;20494;-88
2023/09/19 11:01:07;;;;;;;23.37;21.67;;;;;;;;;;5017837;28;21308;-84
2023/09/19 11:03:43;;;;;;;25.63;23.60;;;;;;;;;;5017019;28;21018;-83
2023/09/19 11:06:13;;;;;;;22.50;20.90;;;;;;;;;;5016808;28;20444;-85
2023/09/19 11:09:21;;;;;;;23.80;21.30;;;;;;;;;;5018332;28;20437;-84
2023/09/19 11:11:57;;;;;;;25.37;23.07;;;;;;;;;;5018398;28;20534;-84
2023/09/19 11:14:31;;;;;;;25.03;22.90;;;;;;;;;;5017560;28;20468;-84
2023/09/19 11:17:17;;;;;;;24.70;22.57;;;;;;;;;;5017527;28;20908;-85
2023/09/19 11:20:09;;;;;;;24.77;23.07;;;;;;;;;;5019177;28;20479;-85
2023/09/19 11:22:53;;;;;;;22.53;20.93;;;;;;;;;;5004284;28;20465;-80
2023/09/19 11:25:41;;;;;;;22.57;21.00;;;;;;;;;;5012568;28;20481;-85
2023/09/19 11:28:31;;;;;;;24.07;22.37;;;;;;;;;;4999359;28;20493;-84
2023/09/19 11:30:59;;;;;;;23.73;21.80;;;;;;;;;;4998976;28;20536;-85
2023/09/19 11:33:31;;;;;;;23.30;21.17;;;;;;;;;;5006861;28;20484;-85
2023/09/19 11:36:05;;;;;;;21.37;20.07;;;;;;;;;;5015807;28;20464;-85
2023/09/19 11:38:50;;;;;;;22.37;21.00;;;;;;;;;;5018826;28;20468;-84
2023/09/19 11:41:36;;;;;;;22.83;20.90;;;;;;;;;;5022666;28;20459;-84
2023/09/19 11:44:23;;;;;;;22.27;20.60;;;;;;;;;;5023017;28;20452;-84
2023/09/19 11:46:56;;;;;;;22.67;20.43;;;;;;;;;;5021991;28;20459;-84
2023/09/19 11:49:31;;;;;;;23.47;21.40;;;;;;;;;;5022712;28;20494;-84
2023/09/19 11:52:01;;;;;;;23.50;21.70;;;;;;;;;;5022727;28;20492;-84
2023/09/19 11:54:31;;;;;;;22.40;20.60;;;;;;;;;;5022825;28;20441;-83
2023/09/19 11:56:58;;;;;;;23.97;21.90;;;;;;;;;;5022424;28;20483;-84
2023/09/19 11:59:27;;;;;;;23.37;21.53;;;;;;;;;;5022187;28;21159;-84
2023/09/19 12:01:58;;;;;;;22.57;20.83;;;;;;;;;;5021498;28;20538;-83
2023/09/19 12:04:37;;;;;;;23.10;21.30;;;;;;;;;;5022473;28;20452;-84
2023/09/19 12:07:05;;;;;;;23.30;21.70;;;;;;;;;;5021971;28;20451;-84
2023/09/19 12:09:32;;;;;;;22.40;20.80;;;;;;;;;;5022125;28;20936;-84
2023/09/19 12:11:59;;;;;;;22.73;21.23;;;;;;;;;;5021516;28;20603;-84
2023/09/19 12:14:27;;;;;;;23.10;21.50;;;;;;;;;;5022597;28;20434;-84
2023/09/19 12:16:56;;;;;;;22.50;20.80;;;;;;;;;;5020865;28;20564;-86
2023/09/19 12:19:24;;;;;;;24.63;22.40;;;;;;;;;;5021832;28;20427;-83
2023/09/19 12:22:04;;;;;;;23.10;20.83;;;;;;;;;;5018710;28;20454;-85
2023/09/19 12:24:31;;;;;;;22.13;20.83;;;;;;;;;;5021601;28;20433;-85
2023/09/19 12:27:04;;;;;;;22.30;20.73;;;;;;;;;;5021421;28;20824;-85
2023/09/19 12:29:32;;;;;;;23.73;21.73;;;;;;;;;;5016171;28;20529;-83
2023/09/19 12:32:03;;;;;;;23.83;22.03;;;;;;;;;;5014501;28;20550;-85
2023/09/19 12:34:34;;;;;;;23.30;21.67;;;;;;;;;;5019822;28;20440;-80
2023/09/19 12:37:10;;;;;;;24.40;22.53;;;;;;;;;;5018990;28;20441;-80
2023/09/19 12:39:38;;;;;;;22.83;21.40;;;;;;;;;;5019302;28;20460;-80
2023/09/19 12:42:08;;;;;;;23.83;22.23;;;;;;;;;;5021098;28;20484;-85
2023/09/19 12:44:35;;;;;;;23.80;21.90;;;;;;;;;;5026248;28;20441;-84
2023/09/19 12:47:11;;;;;;;24.20;22.43;;;;;;;;;;5018265;28;20420;-79
2023/09/19 12:49:58;;;;;;;23.57;21.87;;;;;;;;;;5017633;28;20458;-78
2023/09/19 12:52:26;;;;;;;23.87;21.67;;;;;;;;;;5018187;28;20852;-87
2023/09/19 12:54:53;;;;;;;24.03;22.00;;;;;;;;;;5025759;28;20430;-86
2023/09/19 12:57:25;;;;;;;23.97;22.13;;;;;;;;;;5024695;28;20456;-86
2023/09/19 12:59:53;;;;;;;22.50;21.00;;;;;;;;;;5025032;28;20448;-86
2023/09/19 13:02:23;;;;;;;22.87;21.27;;;;;;;;;;5022697;28;20476;-80
2023/09/19 13:04:54;;;;;;;23.83;21.60;;;;;;;;;;5019139;28;20415;-81
2023/09/19 13:07:36;;;;;;;23.70;21.90;;;;;;;;;;5018370;28;20433;-82
2023/09/19 13:10:05;;;;;;;23.80;21.80;;;;;;;;;;5022093;28;20968;-86
2023/09/19 13:12:38;;;;;;;22.70;21.20;;;;;;;;;;5014715;28;20468;-87
2023/09/19 13:15:13;;;;;;;23.93;21.53;;;;;;;;;;5014037;28;20456;-87
2023/09/19 13:17:49;;;;;;;22.47;21.17;;;;;;;;;;5022827;28;20452;-87
2023/09/19 13:20:27;;;;;;;23.10;21.33;;;;;;;;;;5023805;28;20907;-87
2023/09/19 13:22:58;;;;;;;21.83;20.43;;;;;;;;;;5022605;28;20476;-87
2023/09/19 13:25:27;;;;;;;21.60;20.27;;;;;;;;;;5018321;28;20464;-87
2023/09/19 13:27:55;;;;;;;23.47;21.67;;;;;;;;;;5022548;28;20448;-87
2023/09/19 13:30:24;;;;;;;22.90;21.30;;;;;;;;;;5023537;28;20427;-87
2023/09/19 13:32:53;;;;;;;23.53;21.63;;;;;;;;;;5023008;28;21047;-86
2023/09/19 13:35:21;;;;;;;23.37;21.57;;;;;;;;;;5022159;28;20468;-86
2023/09/19 13:37:51;;;;;;;23.37;21.77;;;;;;;;;;5022763;28;20444;-86
2023/09/19 13:40:18;;;;;;;23.40;21.80;;;;;;;;;;5022696;28;20514;-86
2023/09/19 13:42:45;;;;;;;22.80;21.17;;;;;;;;;;5023213;28;20454;-86
2023/09/19 13:45:15;;;;;;;22.00;20.40;;;;;;;;;;5020830;28;20469;-87
2023/09/19 13:47:42;;;;;;;28.20;22.10;;;;;;;;;;5021241;28;20453;-87
2023/09/19 13:50:11;;;;;;;23.20;21.43;;;;;;;;;;5021383;28;20444;-87
2023/09/19 13:52:38;;;;;;;22.70;21.20;;;;;;;;;;5020411;28;20459;-87
2023/09/19 13:55:06;;;;;;;23.13;21.50;;;;;;;;;;5021659;28;20431;-87
2023/09/19 13:57:34;;;;;;;23.20;21.60;;;;;;;;;;5019526;28;21226;-87
2023/09/19 14:00:01;;;;;;;23.43;21.87;;;;;;;;;;5015732;28;20463;-88
2023/09/19 14:02:28;;;;;;;23.23;21.70;;;;;;;;;;5016185;28;20472;-86
2023/09/19 14:04:55;;;;;;;23.37;21.83;;;;;;;;;;5019439;28;20455;-87
2023/09/19 14:07:24;;;;;;;22.33;20.83;;;;;;;;;;5018715;28;20855;-87
2023/09/19 14:09:52;;;;;;;23.90;22.20;;;;;;;;;;5018591;28;20486;-87
2023/09/19 14:12:19;;;;;;;22.90;21.40;;;;;;;;;;5019023;28;20889;-87
2023/09/19 14:14:46;;;;;;;23.77;21.77;;;;;;;;;;5018973;28;20452;-88
2023/09/19 14:17:14;;;;;;;22.77;21.07;;;;;;;;;;5019752;28;20445;-87
2023/09/19 14:19:42;;;;;;;22.20;20.90;;;;;;;;;;5022959;28;20507;-87
2023/09/19 14:22:10;;;;;;;23.17;21.57;;;;;;;;;;5021335;28;20479;-87
2023/09/19 14:24:38;;;;;;;22.83;21.13;;;;;;;;;;5022024;28;20448;-87
2023/09/19 14:27:08;;;;;;;21.70;20.40;;;;;;;;;;5021488;28;20535;-87
2023/09/19 14:29:35;;;;;;;23.60;22.00;;;;;;;;;;5021794;28;20436;-85
2023/09/19 14:32:02;;;;;;;22.80;20.97;;;;;;;;;;5017864;28;20466;-88